createdAt,value
2022-08-19T00:01:59.116Z,96855.16
2022-08-19T00:04:30.928Z,96860.06
2022-08-19T00:07:02.118Z,96856.38
2022-08-19T00:09:30.041Z,96863.38
2022-08-19T00:11:59.047Z,96862.34
2022-08-19T00:14:27.957Z,96862.72
2022-08-19T00:16:56.254Z,96855.13
2022-08-19T00:19:24.752Z,96857.59
2022-08-19T00:21:52.556Z,96855.13
2022-08-19T00:24:20.471Z,96850.59
2022-08-19T00:26:48.058Z,96845.88
2022-08-19T00:29:17.457Z,96845.47
2022-08-19T00:31:45.963Z,96843.41
2022-08-19T00:34:14.424Z,96848.94
2022-08-19T00:36:43.456Z,96850.16
2022-08-19T00:39:11.205Z,96849.38
2022-08-19T00:41:38.475Z,96853.88
2022-08-19T00:44:09.337Z,96853.06
2022-08-19T00:46:39.472Z,96852.66
2022-08-19T00:49:27.326Z,96853.88
2022-08-19T00:52:01.720Z,96844.81
2022-08-19T00:54:31.577Z,96840.31
2022-08-19T00:57:00.795Z,96842.78
2022-08-19T01:00:00.723Z,96847.91
2022-08-19T01:02:17.881Z,96845.44
2022-08-19T01:04:45.179Z,96848.47
2022-08-19T01:07:15.212Z,96851.97
2022-08-19T01:09:47.232Z,96849.31
2022-08-19T01:12:15.005Z,96841.91
2022-08-19T01:14:41.941Z,96846.41
2022-08-19T01:17:10.791Z,96853.81
2022-08-19T01:19:43.571Z,96844.97
2022-08-19T01:22:34.053Z,96847.59
2022-08-19T01:25:02.405Z,96853.50
2022-08-19T01:27:43.772Z,96852.47
2022-08-19T01:30:14.395Z,96850.47
2022-08-19T01:32:41.701Z,96852.94
2022-08-19T01:35:09.365Z,96855.22
2022-08-19T01:37:45.252Z,96861.75
2022-08-19T01:40:12.982Z,96864.81
2022-08-19T01:42:40.069Z,96861.91
2022-08-19T01:45:08.745Z,96860.03
2022-08-19T01:47:39.579Z,96862.47
2022-08-19T01:50:09.998Z,96859.41
2022-08-19T01:52:38.615Z,96863.53
2022-08-19T01:55:09.459Z,96865.56
2022-08-19T01:57:37.057Z,96864.34
2022-08-19T02:00:09.146Z,96861.22
2022-08-19T02:02:36.440Z,96867.81
2022-08-19T02:05:04.980Z,96866.69
2022-08-19T02:07:34.016Z,96874.03
2022-08-19T02:10:09.426Z,96869.97
2022-08-19T02:12:39.918Z,96870.56
2022-08-19T02:15:08.854Z,96875.72
2022-08-19T02:17:36.221Z,96874.69
2022-08-19T02:20:04.151Z,96873.69
2022-08-19T02:22:31.347Z,96873.28
2022-08-19T02:24:58.378Z,96879.03
2022-08-19T02:27:25.485Z,96880.66
2022-08-19T02:29:53.465Z,96883.50
2022-08-19T02:32:21.239Z,96887.38
2022-08-19T02:34:48.690Z,96889.44
2022-08-19T02:37:35.133Z,96872.41
2022-08-19T02:40:02.872Z,96880.38
2022-08-19T02:42:30.704Z,96877.69
2022-08-19T02:44:57.790Z,96883.63
2022-08-19T02:47:24.839Z,96882.38
2022-08-19T02:49:52.150Z,96890.75
2022-08-19T02:52:19.542Z,96899.72
2022-08-19T02:54:47.480Z,96893.97
2022-08-19T02:57:14.540Z,96896.84
2022-08-19T02:59:41.899Z,96898.91
2022-08-19T03:02:08.912Z,96898.53
2022-08-19T03:04:36.315Z,96891.56
2022-08-19T03:07:10.859Z,96893.59
2022-08-19T03:09:39.116Z,96890.06
2022-08-19T03:12:07.374Z,96894.78
2022-08-19T03:14:35.097Z,96892.72
2022-08-19T03:17:02.178Z,96898.44
2022-08-19T03:19:29.647Z,96903.53
2022-08-19T03:21:56.849Z,96910.69
2022-08-19T03:24:24.362Z,96920.16
2022-08-19T03:26:59.800Z,96920.16
2022-08-19T03:29:32.995Z,96914.81
2022-08-19T03:32:08.031Z,96916.84
2022-08-19T03:34:55.243Z,96929.91
2022-08-19T03:37:23.774Z,96930.69
2022-08-19T03:39:50.977Z,96935.78
2022-08-19T03:42:47.752Z,96933.72
2022-08-19T03:45:05.603Z,96937.19
2022-08-19T03:47:32.638Z,96941.91
2022-08-19T03:49:59.709Z,96944.38
2022-08-19T03:52:27.229Z,96942.91
2022-08-19T03:54:54.317Z,96940.44
2022-08-19T03:57:21.827Z,96939.34
2022-08-19T04:00:13.233Z,96945.78
2022-08-19T04:03:00.052Z,96945.03
2022-08-19T04:05:29.880Z,96947.09
2022-08-19T04:08:00.293Z,96946.66
2022-08-19T04:10:29.437Z,96953.00
2022-08-19T04:12:56.537Z,96948.13
2022-08-19T04:15:23.691Z,96946.66
2022-08-19T04:17:50.760Z,96943.78
2022-08-19T04:20:18.344Z,96950.59
2022-08-19T04:22:45.556Z,96946.13
2022-08-19T04:25:12.822Z,96946.78
2022-08-19T04:27:39.891Z,96946.34
2022-08-19T04:30:07.761Z,96943.31
2022-08-19T04:32:36.629Z,96944.56
2022-08-19T04:35:16.823Z,96943.97
2022-08-19T04:37:44.884Z,96938.06
2022-08-19T04:40:31.474Z,96951.28
2022-08-19T04:42:58.638Z,96949.97
2022-08-19T04:45:25.690Z,96957.00
2022-08-19T04:47:59.013Z,96951.31
2022-08-19T04:50:44.922Z,96956.56
2022-08-19T04:53:12.334Z,96949.69
2022-08-19T04:55:43.767Z,96951.38
2022-08-19T04:58:11.301Z,96954.47
2022-08-19T05:00:41.160Z,96949.19
2022-08-19T05:03:09.358Z,96954.78
2022-08-19T05:05:44.753Z,96956.66
2022-08-19T05:08:15.379Z,96950.50
2022-08-19T05:10:43.568Z,96950.47
2022-08-19T05:13:11.099Z,96943.03
2022-08-19T05:15:38.729Z,96939.41
2022-08-19T05:18:24.236Z,96936.19
2022-08-19T05:21:09.760Z,96934.81
2022-08-19T05:23:36.805Z,96935.88
2022-08-19T05:26:04.864Z,96926.97
2022-08-19T05:28:32.284Z,96933.28
2022-08-19T05:30:59.365Z,96923.69
2022-08-19T05:33:26.851Z,96926.06
2022-08-19T05:35:54.212Z,96927.50
2022-08-19T05:38:21.445Z,96928.47
2022-08-19T05:40:50.658Z,96927.59
2022-08-19T05:43:17.879Z,96930.28
2022-08-19T05:45:45.434Z,96914.84
2022-08-19T05:48:12.676Z,96912.53
2022-08-19T05:50:41.669Z,96908.75
2022-08-19T05:53:10.158Z,96917.56
2022-08-19T05:55:39.637Z,96916.66
2022-08-19T05:58:08.867Z,96903.63
2022-08-19T06:00:38.317Z,96911.31
2022-08-19T06:03:13.003Z,96905.91
2022-08-19T06:05:46.834Z,96905.19
2022-08-19T06:08:19.846Z,96911.75
2022-08-19T06:10:47.266Z,96896.31
2022-08-19T06:13:14.088Z,96911.91
2022-08-19T06:15:45.176Z,96907.06
2022-08-19T06:18:13.022Z,96902.16
2022-08-19T06:20:55.553Z,96914.16
2022-08-19T06:23:24.315Z,96904.38
2022-08-19T06:25:51.476Z,96909.13
2022-08-19T06:28:18.982Z,96906.00
2022-08-19T06:30:46.372Z,96899.28
2022-08-19T06:33:13.437Z,96900.16
2022-08-19T06:35:42.023Z,96907.28
2022-08-19T06:38:10.790Z,96903.56
2022-08-19T06:40:39.477Z,96898.25
2022-08-19T06:43:08.581Z,96904.78
2022-08-19T06:45:39.859Z,96909.72
2022-08-19T06:48:08.178Z,96895.53
2022-08-19T06:50:36.787Z,96890.06
2022-08-19T06:53:07.095Z,96895.09
2022-08-19T06:55:34.254Z,96898.47
2022-08-19T06:58:05.098Z,96890.69
2022-08-19T07:00:32.858Z,96898.00
2022-08-19T07:03:02.981Z,96893.81
2022-08-19T07:05:33.274Z,96894.31
2022-08-19T07:08:04.885Z,96899.06
2022-08-19T07:10:33.973Z,96896.50
2022-08-19T07:13:01.534Z,96899.03
2022-08-19T07:15:28.968Z,96888.34
2022-08-19T07:17:56.350Z,96896.94
2022-08-19T07:20:28.466Z,96891.22
2022-08-19T07:22:56.543Z,96893.34
2022-08-19T07:25:31.927Z,96893.63
2022-08-19T07:28:01.364Z,96888.16
2022-08-19T07:30:31.524Z,96886.69
2022-08-19T07:32:59.036Z,96904.53
2022-08-19T07:35:27.076Z,96886.28
2022-08-19T07:37:54.378Z,96905.13
2022-08-19T07:40:21.765Z,96900.63
2022-08-19T07:42:49.148Z,96908.97
2022-08-19T07:45:17.214Z,96889.94
2022-08-19T07:47:58.860Z,96891.91
2022-08-19T07:50:26.204Z,96902.47
2022-08-19T07:52:53.378Z,96892.88
2022-08-19T07:55:42.377Z,96899.00
2022-08-19T07:58:25.027Z,96892.19
2022-08-19T08:00:53.113Z,96891.31
2022-08-19T08:03:43.053Z,96891.50
2022-08-19T08:06:29.261Z,96888.38
2022-08-19T08:09:12.458Z,96881.88
2022-08-19T08:11:41.944Z,96885.72
2022-08-19T08:14:29.303Z,96883.00
2022-08-19T08:16:59.210Z,96875.94
2022-08-19T08:19:28.146Z,96880.00
2022-08-19T08:21:58.681Z,96874.72
2022-08-19T08:24:28.525Z,96879.91
2022-08-19T08:26:57.100Z,96881.00
2022-08-19T08:29:26.089Z,96874.72
2022-08-19T08:31:53.472Z,96876.84
2022-08-19T08:34:30.207Z,96882.63
2022-08-19T08:36:57.249Z,96877.38
2022-08-19T08:39:24.125Z,96883.75
2022-08-19T08:42:09.747Z,96874.34
2022-08-19T08:44:51.465Z,96879.69
2022-08-19T08:47:21.946Z,96877.53
2022-08-19T08:50:08.302Z,96875.06
2022-08-19T08:52:43.591Z,96879.41
2022-08-19T08:55:26.492Z,96875.75
2022-08-19T08:58:00.574Z,96877.75
2022-08-19T09:00:32.063Z,96876.88
2022-08-19T09:03:02.909Z,96871.28
2022-08-19T09:06:02.472Z,96864.00
2022-08-19T09:09:00.819Z,96868.94
2022-08-19T09:12:07.979Z,96875.03
2022-08-19T09:14:50.807Z,96871.69
2022-08-19T09:17:32.068Z,96865.09
2022-08-19T09:20:09.103Z,96859.81
2022-08-19T09:22:45.042Z,96868.34
2022-08-19T09:25:15.293Z,96861.88
2022-08-19T09:27:45.503Z,96863.28
2022-08-19T09:30:22.445Z,96858.47
2022-08-19T09:32:52.925Z,96855.75
2022-08-19T09:35:24.687Z,96864.41
2022-08-19T09:37:57.458Z,96858.94
2022-08-19T09:40:26.833Z,96855.13
2022-08-19T09:42:58.898Z,96850.38
2022-08-19T09:45:25.937Z,96847.78
2022-08-19T09:47:54.947Z,96844.66
2022-08-19T09:50:24.954Z,96842.34
2022-08-19T09:52:57.022Z,96836.22
2022-08-19T09:55:31.795Z,96827.66
2022-08-19T09:58:01.846Z,96840.94
2022-08-19T10:00:29.805Z,96836.44
2022-08-19T10:02:56.877Z,96839.75
2022-08-19T10:05:42.767Z,96836.34
2022-08-19T10:08:13.674Z,96833.84
2022-08-19T10:10:46.621Z,96828.59
2022-08-19T10:13:16.074Z,96832.94
2022-08-19T10:15:45.118Z,96837.19
2022-08-19T10:18:18.060Z,96835.84
2022-08-19T10:20:51.554Z,96827.66
2022-08-19T10:23:21.266Z,96825.44
2022-08-19T10:25:49.205Z,96831.91
2022-08-19T10:28:19.362Z,96829.94
2022-08-19T10:30:48.035Z,96827.81
2022-08-19T10:33:39.213Z,96828.34
2022-08-19T10:36:06.592Z,96827.00
2022-08-19T10:38:35.224Z,96815.69
2022-08-19T10:41:14.483Z,96823.91
2022-08-19T10:43:43.005Z,96827.34
2022-08-19T10:46:14.190Z,96823.06
2022-08-19T10:48:44.977Z,96820.16
2022-08-19T10:51:31.599Z,96825.28
2022-08-19T10:54:00.143Z,96817.44
2022-08-19T10:56:47.549Z,96814.75
2022-08-19T10:59:15.698Z,96812.34
2022-08-19T11:01:45.130Z,96817.91
2022-08-19T11:04:14.889Z,96817.13
2022-08-19T11:06:44.725Z,96810.25
2022-08-19T11:09:12.824Z,96817.41
2022-08-19T11:11:42.566Z,96816.56
2022-08-19T11:14:12.618Z,96814.00
2022-08-19T11:16:40.599Z,96807.06
2022-08-19T11:19:09.538Z,96802.25
2022-08-19T11:21:45.004Z,96801.03
2022-08-19T11:24:21.604Z,96791.13
2022-08-19T11:26:50.715Z,96797.91
2022-08-19T11:29:20.550Z,96784.81
2022-08-19T11:31:50.005Z,96790.28
2022-08-19T11:34:21.145Z,96798.72
2022-08-19T11:36:49.861Z,96791.97
2022-08-19T11:39:20.164Z,96797.94
2022-08-19T11:41:47.775Z,96794.50
2022-08-19T11:44:15.639Z,96782.97
2022-08-19T11:46:47.329Z,96783.72
2022-08-19T11:49:20.283Z,96779.28
2022-08-19T11:51:49.479Z,96781.44
2022-08-19T11:54:18.344Z,96772.44
2022-08-19T11:56:47.361Z,96782.50
2022-08-19T11:59:15.109Z,96777.66
2022-08-19T12:01:43.925Z,96775.44
2022-08-19T12:04:12.244Z,96762.09
2022-08-19T12:06:41.544Z,96768.63
2022-08-19T12:09:11.135Z,96765.53
2022-08-19T12:11:40.472Z,96761.28
2022-08-19T12:14:14.603Z,96760.03
2022-08-19T12:16:44.685Z,96759.84
2022-08-19T12:19:22.256Z,96758.47
2022-08-19T12:21:51.100Z,96751.34
2022-08-19T12:24:24.336Z,96758.41
2022-08-19T12:27:12.749Z,96756.16
2022-08-19T12:29:40.839Z,96761.63
2022-08-19T12:32:10.402Z,96757.44
2022-08-19T12:34:40.395Z,96752.59
2022-08-19T12:37:07.674Z,96749.41
2022-08-19T12:39:41.366Z,96755.97
2022-08-19T12:42:11.555Z,96750.19
2022-08-19T12:44:41.747Z,96748.56
2022-08-19T12:47:11.354Z,96744.88
2022-08-19T12:49:53.525Z,96744.44
2022-08-19T12:52:24.963Z,96736.75
2022-08-19T12:54:55.611Z,96733.50
2022-08-19T12:57:32.995Z,96741.72
2022-08-19T13:00:05.728Z,96742.97
2022-08-19T13:02:38.131Z,96739.03
2022-08-19T13:05:09.480Z,96742.03
2022-08-19T13:07:37.203Z,96737.94
2022-08-19T13:10:05.080Z,96738.63
2022-08-19T13:12:32.311Z,96725.75
2022-08-19T13:14:59.358Z,96726.31
2022-08-19T13:17:26.509Z,96731.91
2022-08-19T13:19:53.640Z,96731.19
2022-08-19T13:22:20.724Z,96727.34
2022-08-19T13:24:48.003Z,96727.97
2022-08-19T13:27:16.597Z,96731.28
2022-08-19T13:30:02.336Z,96726.69
2022-08-19T13:32:49.375Z,96723.63
2022-08-19T13:35:18.223Z,96726.31
2022-08-19T13:37:46.622Z,96724.28
2022-08-19T13:40:17.275Z,96718.59
2022-08-19T13:42:48.582Z,96715.25
2022-08-19T13:45:25.567Z,96727.97
2022-08-19T13:47:59.116Z,96721.06
2022-08-19T13:50:35.057Z,96715.38
2022-08-19T13:53:03.564Z,96717.38
2022-08-19T13:55:31.499Z,96732.56
2022-08-19T13:58:02.991Z,96711.91
2022-08-19T14:00:34.559Z,96716.38
2022-08-19T14:03:02.903Z,96717.56
2022-08-19T14:05:34.545Z,96720.03
2022-08-19T14:08:01.950Z,96720.44
2022-08-19T14:10:31.925Z,96723.06
2022-08-19T14:13:01.172Z,96717.19
2022-08-19T14:15:29.053Z,96716.78
2022-08-19T14:17:57.021Z,96720.34
2022-08-19T14:20:26.067Z,96719.81
2022-08-19T14:22:55.038Z,96714.16
2022-08-19T14:25:26.388Z,96722.69
2022-08-19T14:27:53.619Z,96723.69
2022-08-19T14:30:24.777Z,96725.50
2022-08-19T14:32:54.934Z,96712.03
2022-08-19T14:35:23.721Z,96713.09
2022-08-19T14:37:51.653Z,96724.03
2022-08-19T14:40:24.294Z,96713.25
2022-08-19T14:42:51.334Z,96714.75
2022-08-19T14:45:18.606Z,96712.28
2022-08-19T14:47:46.205Z,96717.38
2022-08-19T14:50:18.390Z,96710.50
2022-08-19T14:52:49.886Z,96710.03
2022-08-19T14:55:19.206Z,96716.94
2022-08-19T14:57:46.395Z,96709.59
2022-08-19T15:00:14.796Z,96704.72
2022-08-19T15:02:45.366Z,96706.19
2022-08-19T15:05:13.919Z,96700.75
2022-08-19T15:07:42.184Z,96700.66
2022-08-19T15:10:10.945Z,96707.59
2022-08-19T15:12:43.699Z,96704.78
2022-08-19T15:15:14.576Z,96705.44
2022-08-19T15:17:46.189Z,96708.06
2022-08-19T15:20:23.719Z,96712.69
2022-08-19T15:22:50.973Z,96707.41
2022-08-19T15:25:21.438Z,96699.97
2022-08-19T15:27:49.010Z,96704.94
2022-08-19T15:30:23.287Z,96708.66
2022-08-19T15:32:51.038Z,96705.66
2022-08-19T15:35:19.659Z,96701.47
2022-08-19T15:37:50.961Z,96704.09
2022-08-19T15:40:19.244Z,96697.50
2022-08-19T15:42:47.664Z,96700.50
2022-08-19T15:45:16.000Z,96698.06
2022-08-19T15:47:43.161Z,96697.41
2022-08-19T15:50:11.197Z,96698.44
2022-08-19T15:52:59.447Z,96691.81
2022-08-19T15:55:32.495Z,96697.47
2022-08-19T15:58:30.144Z,96694.28
2022-08-19T16:01:21.778Z,96687.69
2022-08-19T16:04:14.903Z,96694.88
2022-08-19T16:06:49.484Z,96689.38
2022-08-19T16:09:21.171Z,96690.16
2022-08-19T16:12:02.516Z,96692.97
2022-08-19T16:14:35.581Z,96692.75
2022-08-19T16:17:03.261Z,96699.69
2022-08-19T16:19:32.758Z,96693.75
2022-08-19T16:21:59.882Z,96693.28
2022-08-19T16:24:28.345Z,96696.56
2022-08-19T16:26:56.833Z,96701.53
2022-08-19T16:29:33.844Z,96697.25
2022-08-19T16:32:04.545Z,96686.47
2022-08-19T16:34:33.758Z,96693.00
2022-08-19T16:37:02.262Z,96691.16
2022-08-19T16:39:29.630Z,96688.75
2022-08-19T16:41:56.763Z,96698.03
2022-08-19T16:44:23.911Z,96694.53
2022-08-19T16:46:58.460Z,96695.59
2022-08-19T16:49:52.359Z,96697.00
2022-08-19T16:52:18.304Z,96701.09
2022-08-19T16:54:48.878Z,96703.50
2022-08-19T16:57:16.727Z,96712.13
2022-08-19T16:59:49.092Z,96707.50
2022-08-19T17:02:18.511Z,96715.59
2022-08-19T17:04:57.202Z,96709.06
2022-08-19T17:07:26.535Z,96713.03
2022-08-19T17:09:54.148Z,96716.75
2022-08-19T17:12:30.385Z,96726.16
2022-08-19T17:15:04.615Z,96727.97
2022-08-19T17:17:32.366Z,96726.19
2022-08-19T17:20:00.796Z,96730.44
2022-08-19T17:22:28.439Z,96738.19
2022-08-19T17:24:56.436Z,96733.72
2022-08-19T17:27:26.169Z,96740.91
2022-08-19T17:29:53.340Z,96753.50
2022-08-19T17:32:25.215Z,96747.13
2022-08-19T17:34:54.384Z,96750.53
2022-08-19T17:37:22.340Z,96753.38
2022-08-19T17:39:49.830Z,96759.69
2022-08-19T17:42:17.229Z,96764.31
2022-08-19T17:44:44.879Z,96763.09
2022-08-19T17:47:19.736Z,96764.53
2022-08-19T17:49:47.223Z,96769.22
2022-08-19T17:52:14.057Z,96783.63
2022-08-19T17:54:41.522Z,96778.03
2022-08-19T17:57:08.731Z,96782.22
2022-08-19T17:59:37.746Z,96791.69
2022-08-19T18:02:07.125Z,96799.88
2022-08-19T18:04:38.620Z,96785.56
2022-08-19T18:07:06.561Z,96788.41
2022-08-19T18:09:41.209Z,96799.53
2022-08-19T18:12:11.586Z,96794.03
2022-08-19T18:14:40.085Z,96805.00
2022-08-19T18:17:14.337Z,96806.75
2022-08-19T18:19:44.073Z,96810.19
2022-08-19T18:22:27.001Z,96812.44
2022-08-19T18:24:54.916Z,96808.72
2022-08-19T18:27:22.809Z,96819.84
2022-08-19T18:29:49.973Z,96824.78
2022-08-19T18:32:23.747Z,96835.69
2022-08-19T18:34:51.573Z,96836.84
2022-08-19T18:37:18.597Z,96839.09
2022-08-19T18:40:04.458Z,96840.00
2022-08-19T18:42:50.187Z,96846.47
2022-08-19T18:45:35.881Z,96844.56
2022-08-19T18:48:26.795Z,96849.25
2022-08-19T18:50:56.832Z,96850.91
2022-08-19T18:53:24.974Z,96845.97
2022-08-19T18:55:55.730Z,96856.03
2022-08-19T18:58:34.443Z,96856.94
2022-08-19T19:01:11.724Z,96853.91
2022-08-19T19:03:42.286Z,96857.84
2022-08-19T19:06:09.836Z,96865.31
2022-08-19T19:08:41.093Z,96860.03
2022-08-19T19:11:09.302Z,96858.94
2022-08-19T19:13:40.074Z,96860.69
2022-08-19T19:16:11.780Z,96861.72
2022-08-19T19:18:40.617Z,96860.53
2022-08-19T19:21:09.506Z,96861.59
2022-08-19T19:23:41.000Z,96864.47
2022-08-19T19:26:10.809Z,96862.53
2022-08-19T19:28:43.628Z,96870.47
2022-08-19T19:31:16.891Z,96864.91
2022-08-19T19:33:44.923Z,96862.84
2022-08-19T19:36:13.240Z,96868.97
2022-08-19T19:38:48.019Z,96860.75
2022-08-19T19:41:18.684Z,96861.22
2022-08-19T19:43:46.075Z,96857.72
2022-08-19T19:46:15.483Z,96868.66
2022-08-19T19:48:42.928Z,96860.31
2022-08-19T19:51:10.177Z,96865.09
2022-08-19T19:53:37.576Z,96861.81
2022-08-19T19:56:08.194Z,96864.13
2022-08-19T19:58:36.784Z,96865.56
2022-08-19T20:01:09.730Z,96864.50
2022-08-19T20:03:37.067Z,96863.00
2022-08-19T20:06:08.530Z,96858.94
2022-08-19T20:08:54.293Z,96861.81
2022-08-19T20:12:02.339Z,96855.66
2022-08-19T20:14:36.000Z,96860.63
2022-08-19T20:17:05.561Z,96857.19
2022-08-19T20:19:34.503Z,96863.38
2022-08-19T20:22:01.895Z,96864.09
2022-08-19T20:24:35.134Z,96863.72
2022-08-19T20:27:03.890Z,96858.09
2022-08-19T20:29:38.312Z,96867.59
2022-08-19T20:32:07.658Z,96870.94
2022-08-19T20:34:34.561Z,96879.25
2022-08-19T20:37:01.787Z,96877.44
2022-08-19T20:39:29.075Z,96879.97
2022-08-19T20:41:56.835Z,96886.97
2022-08-19T20:44:25.719Z,96891.97
2022-08-19T20:46:55.585Z,96886.47
2022-08-19T20:49:27.725Z,96895.75
2022-08-19T20:51:58.676Z,96893.06
2022-08-19T20:54:27.216Z,96893.28
2022-08-19T20:56:54.887Z,96892.84
2022-08-19T20:59:22.401Z,96888.34
2022-08-19T21:01:53.432Z,96885.44
2022-08-19T21:04:21.767Z,96894.88
2022-08-19T21:06:50.615Z,96896.72
2022-08-19T21:09:18.003Z,96896.31
2022-08-19T21:11:52.043Z,96894.06
2022-08-19T21:14:20.642Z,96900.41
2022-08-19T21:16:51.416Z,96894.28
2022-08-19T21:19:23.289Z,96900.06
2022-08-19T21:21:50.976Z,96888.88
2022-08-19T21:24:18.161Z,96889.50
2022-08-19T21:26:51.190Z,96902.56
2022-08-19T21:29:24.883Z,96902.38
2022-08-19T21:31:52.067Z,96893.53
2022-08-19T21:34:19.252Z,96889.66
2022-08-19T21:36:46.418Z,96884.09
2022-08-19T21:39:16.628Z,96885.97
2022-08-19T21:41:43.984Z,96881.63
2022-08-19T21:44:11.062Z,96878.59
2022-08-19T21:46:41.058Z,96885.63
2022-08-19T21:49:08.283Z,96873.91
2022-08-19T21:51:35.500Z,96879.25
2022-08-19T21:54:02.613Z,96873.91
2022-08-19T21:56:29.917Z,96877.19
2022-08-19T21:58:57.100Z,96880.31
2022-08-19T22:01:24.331Z,96884.03
2022-08-19T22:03:51.475Z,96891.66
2022-08-19T22:06:20.168Z,96884.47
2022-08-19T22:08:48.102Z,96894.56
2022-08-19T22:11:15.148Z,96886.13
2022-08-19T22:13:42.310Z,96881.81
2022-08-19T22:16:15.158Z,96880.19
2022-08-19T22:18:42.311Z,96887.16
2022-08-19T22:21:11.852Z,96884.91
2022-08-19T22:23:41.041Z,96878.75
2022-08-19T22:26:08.588Z,96878.34
2022-08-19T22:28:35.693Z,96881.66
2022-08-19T22:31:03.441Z,96877.34
2022-08-19T22:33:32.660Z,96878.16
2022-08-19T22:36:00.695Z,96876.94
2022-08-19T22:38:27.972Z,96879.78
2022-08-19T22:40:56.635Z,96870.75
2022-08-19T22:43:34.694Z,96872.41
2022-08-19T22:46:02.439Z,96877.75
2022-08-19T22:48:31.362Z,96877.56
2022-08-19T22:51:20.188Z,96872.81
2022-08-19T22:53:48.421Z,96871.19
2022-08-19T22:56:20.436Z,96867.06
2022-08-19T22:58:50.816Z,96867.91
2022-08-19T23:01:30.048Z,96857.66
2022-08-19T23:03:59.382Z,96868.72
2022-08-19T23:06:33.077Z,96861.75
2022-08-19T23:09:01.001Z,96866.25
2022-08-19T23:11:35.448Z,96857.22
2022-08-19T23:14:05.305Z,96858.88
2022-08-19T23:16:35.053Z,96857.41
2022-08-19T23:19:02.910Z,96852.72
2022-08-19T23:21:30.281Z,96847.78
2022-08-19T23:24:00.578Z,96854.34
2022-08-19T23:26:27.823Z,96843.47
2022-08-19T23:29:13.391Z,96849.22
2022-08-19T23:31:40.471Z,96845.91
2022-08-19T23:34:07.572Z,96838.91
2022-08-19T23:36:34.895Z,96835.22
2022-08-19T23:39:02.034Z,96838.72
2022-08-19T23:41:29.268Z,96840.34
2022-08-19T23:43:56.760Z,96841.38
2022-08-19T23:46:28.905Z,96837.06
2022-08-19T23:48:58.435Z,96836.84
2022-08-19T23:51:26.978Z,96840.75
2022-08-19T23:53:54.769Z,96829.88
2022-08-19T23:56:22.345Z,96836.63
2022-08-19T23:58:49.482Z,96830.88
